Time;durP1;ratioP1;P1;durP2;ratioP2;P2;SDS_P1;SDS_P2;PMS_P1;PMS_P2;Temp;Humidity;BMP_temperature;BMP_pressure;BME280_temperature;BME280_humidity;BME280_pressure;Samples;Min_cycle;Max_cycle;Signal;HPM_P1;HPM_P2
2023/10/06 05:18:38;;;;;;;;;;;;;;;;;;3365234;26;19964;-39
2023/10/06 05:21:06;;;;;;;;;;;;;;;;;;5031358;28;19917;-40
2023/10/06 05:23:34;;;;;;;;;;;;;;;;;;5031573;28;19944;-39
2023/10/06 05:26:04;;;;;;;;;;;;;;;;;;5031754;28;19909;-40
2023/10/06 05:28:31;;;;;;;;;;;;;;;;;;5046778;28;19909;-39
2023/10/06 05:30:57;;;;;;;;;;;;;;;;;;5048538;28;19912;-40
2023/10/06 05:33:25;;;;;;;;;;;;;;;;;;5070511;28;19917;-39
2023/10/06 05:35:51;;;;;;;;;;;;;;;;;;5037125;28;19912;-39
2023/10/06 05:38:17;;;;;;;;;;;;;;;;;;5050691;28;19916;-39
2023/10/06 05:40:46;;;;;;;;;;;;;;;;;;5050965;28;20267;-39
2023/10/06 05:43:12;;;;;;;;;;;;;;;;;;5050500;28;19983;-48
2023/10/06 05:45:39;;;;;;;;;;;;;;;;;;5050464;28;19952;-46
2023/10/06 05:48:06;;;;;;;;;;;;;;;;;;5047759;28;20333;-48
2023/10/06 05:50:35;;;;;;;;;;;;;;;;;;5054268;28;19917;-40
2023/10/06 05:53:04;;;;;;;;;;;;;;;;;;5063332;28;19960;-39
2023/10/06 05:55:30;;;;;;;;;;;;;;;;;;5050063;28;20426;-40
2023/10/06 05:57:56;;;;;;;;;;;;;;;;;;5050364;28;19913;-39
2023/10/06 06:00:26;;;;;;;;;;;;;;;;;;5049888;28;19919;-40
2023/10/06 06:02:52;;;;;;;;;;;;;;;;;;5048867;28;19968;-40
2023/10/06 06:05:18;;;;;;;;;;;;;;;;;;5038274;28;20347;-40
2023/10/06 06:07:44;;;;;;;;;;;;;;;;;;5041686;28;20287;-39
2023/10/06 06:10:13;;;;;;;;;;;;;;;;;;5050557;28;20003;-40
2023/10/06 06:12:39;;;;;;;;;;;;;;;;;;5049967;28;19956;-39
2023/10/06 06:15:07;;;;;;;;;;;;;;;;;;5048678;28;19909;-39
2023/10/06 06:17:34;;;;;;;;;;;;;;;;;;5047724;28;20391;-40
2023/10/06 06:20:00;;;;;;;;;;;;;;;;;;5050379;28;19917;-39
2023/10/06 06:22:29;;;;;;;;;;;;;;;;;;5049546;28;20025;-39
2023/10/06 06:24:55;;;;;;;;;;;;;;;;;;5049578;28;19915;-39
2023/10/06 06:27:22;;;;;;;;;;;;;;;;;;5049091;28;19999;-39
2023/10/06 06:29:49;;;;;;;;;;;;;;;;;;5046059;28;19920;-39
2023/10/06 06:32:15;;;;;;;;;;;;;;;;;;5047800;28;19919;-39
2023/10/06 06:34:41;;;;;;;;;;;;;;;;;;5048657;28;19920;-39
2023/10/06 06:37:09;;;;;;;;;;;;;;;;;;5050168;28;19909;-39
2023/10/06 06:39:37;;;;;;;;;;;;;;;;;;5050409;28;20292;-39
2023/10/06 06:42:04;;;;;;;;;;;;;;;;;;5047931;28;20532;-39
2023/10/06 06:44:30;;;;;;;;;;;;;;;;;;5049098;28;20383;-39
2023/10/06 06:46:56;;;;;;;;;;;;;;;;;;5050032;28;19916;-40
2023/10/06 06:49:23;;;;;;;;;;;;;;;;;;5049271;28;19913;-39
2023/10/06 06:51:52;;;;;;;;;;;;;;;;;;5049333;28;19919;-39
2023/10/06 06:54:19;;;;;;;;;;;;;;;;;;5049918;28;19909;-39
2023/10/06 06:56:47;;;;;;;;;;;;;;;;;;5050006;28;19909;-39
2023/10/06 06:59:13;;;;;;;;;;;;;;;;;;5035334;28;19920;-39
2023/10/06 07:01:39;;;;;;;;;;;;;;;;;;5029504;28;19913;-39
2023/10/06 07:04:04;;;;;;;;;;;;;;;;;;5029876;28;20354;-39
2023/10/06 07:06:31;;;;;;;;;;;;;;;;;;5030061;28;19940;-39
2023/10/06 07:08:57;;;;;;;;;;;;;;;;;;5029743;28;19941;-39
2023/10/06 07:11:23;;;;;;;;;;;;;;;;;;5030165;28;19917;-39
2023/10/06 07:13:49;;;;;;;;;;;;;;;;;;5029881;28;19909;-40
2023/10/06 07:16:14;;;;;;;;;;;;;;;;;;5029957;28;19917;-39
2023/10/06 07:18:40;;;;;;;;;;;;;;;;;;5029704;28;19944;-39
2023/10/06 07:21:06;;;;;;;;;;;;;;;;;;5030440;28;20000;-40
2023/10/06 07:23:34;;;;;;;;;;;;;;;;;;5029845;28;20681;-39
2023/10/06 07:26:00;;;;;;;;;;;;;;;;;;5033340;28;19910;-40
2023/10/06 07:28:27;;;;;;;;;;;;;;;;;;5042108;28;20421;-40
2023/10/06 07:30:53;;;;;;;;;;;;;;;;;;5053504;28;19913;-39
2023/10/06 07:33:19;;;;;;;;;;;;;;;;;;5053152;28;20429;-39
2023/10/06 07:35:47;;;;;;;;;;;;;;;;;;5053241;28;19909;-39
2023/10/06 07:38:13;;;;;;;;;;;;;;;;;;5052877;28;20042;-40
2023/10/06 07:40:39;;;;;;;;;;;;;;;;;;5053144;28;20287;-39
2023/10/06 07:43:07;;;;;;;;;;;;;;;;;;5053168;28;19913;-40
2023/10/06 07:45:33;;;;;;;;;;;;;;;;;;5053314;28;19999;-39
2023/10/06 07:47:59;;;;;;;;;;;;;;;;;;5043695;28;19917;-39
2023/10/06 07:50:26;;;;;;;;;;;;;;;;;;5032988;28;19916;-39
2023/10/06 07:52:53;;;;;;;;;;;;;;;;;;5032848;28;19917;-39
2023/10/06 07:55:21;;;;;;;;;;;;;;;;;;5033063;28;19909;-39
2023/10/06 07:57:47;;;;;;;;;;;;;;;;;;5040827;28;19913;-39
2023/10/06 08:00:21;;;;;;;;;;;;;;;;;;5041277;28;19909;-39
2023/10/06 08:02:47;;;;;;;;;;;;;;;;;;5052179;28;19908;-39
2023/10/06 08:05:13;;;;;;;;;;;;;;;;;;5051553;28;20363;-40
2023/10/06 08:07:39;;;;;;;;;;;;;;;;;;5051311;28;19967;-40
2023/10/06 08:10:05;;;;;;;;;;;;;;;;;;5051488;28;19916;-40
2023/10/06 08:12:33;;;;;;;;;;;;;;;;;;5051170;28;19913;-39
2023/10/06 08:14:59;;;;;;;;;;;;;;;;;;5051577;28;19913;-40
2023/10/06 08:17:27;;;;;;;;;;;;;;;;;;5051230;28;20383;-40
2023/10/06 08:19:54;;;;;;;;;;;;;;;;;;5050685;28;19971;-39
2023/10/06 08:22:22;;;;;;;;;;;;;;;;;;5051307;28;19936;-39
2023/10/06 08:24:48;;;;;;;;;;;;;;;;;;5033024;28;19908;-40
2023/10/06 08:27:20;;;;;;;;;;;;;;;;;;5050854;28;20333;-40
2023/10/06 08:29:46;;;;;;;;;;;;;;;;;;5050769;28;19915;-40
2023/10/06 08:32:12;;;;;;;;;;;;;;;;;;5050997;28;19918;-39
2023/10/06 08:34:39;;;;;;;;;;;;;;;;;;5050687;28;19956;-40
2023/10/06 08:37:10;;;;;;;;;;;;;;;;;;5051172;28;19909;-40
2023/10/06 08:39:39;;;;;;;;;;;;;;;;;;5050343;28;19920;-40
2023/10/06 08:42:05;;;;;;;;;;;;;;;;;;5041442;28;19909;-40
2023/10/06 08:44:31;;;;;;;;;;;;;;;;;;5035638;28;19919;-40
2023/10/06 08:46:57;;;;;;;;;;;;;;;;;;5049463;28;19992;-40
2023/10/06 08:49:23;;;;;;;;;;;;;;;;;;5049564;28;19919;-39
2023/10/06 08:51:49;;;;;;;;;;;;;;;;;;5047721;28;20492;-39
2023/10/06 08:54:15;;;;;;;;;;;;;;;;;;5044478;28;19909;-40
2023/10/06 08:56:41;;;;;;;;;;;;;;;;;;5030582;28;19952;-40
2023/10/06 08:59:07;;;;;;;;;;;;;;;;;;5031653;28;19913;-40
2023/10/06 09:01:33;;;;;;;;;;;;;;;;;;5030865;28;19940;-40
2023/10/06 09:03:59;;;;;;;;;;;;;;;;;;5030483;28;19959;-40
2023/10/06 09:06:25;;;;;;;;;;;;;;;;;;5030302;28;19915;-40
2023/10/06 09:08:51;;;;;;;;;;;;;;;;;;5037185;28;19912;-40
2023/10/06 09:11:20;;;;;;;;;;;;;;;;;;5032798;28;20012;-40
2023/10/06 09:13:46;;;;;;;;;;;;;;;;;;5036023;28;19956;-40
2023/10/06 09:16:12;;;;;;;;;;;;;;;;;;5051054;28;19956;-40
2023/10/06 09:18:41;;;;;;;;;;;;;;;;;;5051359;28;19978;-40
2023/10/06 09:21:07;;;;;;;;;;;;;;;;;;5050857;28;19913;-40
2023/10/06 09:23:32;;;;;;;;;;;;;;;;;;5051265;28;19919;-40
2023/10/06 09:25:58;;;;;;;;;;;;;;;;;;5050696;28;20521;-40
2023/10/06 09:28:26;;;;;;;;;;;;;;;;;;5050813;28;19916;-40
2023/10/06 09:31:01;;;;;;;;;;;;;;;;;;5050492;28;19937;-40
2023/10/06 09:33:26;;;;;;;;;;;;;;;;;;5049445;28;20383;-40
2023/10/06 09:35:55;;;;;;;;;;;;;;;;;;5050614;28;20030;-40
2023/10/06 09:38:21;;;;;;;;;;;;;;;;;;5050752;28;19975;-40
2023/10/06 09:40:47;;;;;;;;;;;;;;;;;;5050722;28;20498;-39
2023/10/06 09:43:13;;;;;;;;;;;;;;;;;;5050791;28;20390;-40
2023/10/06 09:45:39;;;;;;;;;;;;;;;;;;5050542;28;19936;-40
2023/10/06 09:48:05;;;;;;;;;;;;;;;;;;5050320;28;20405;-40
2023/10/06 09:50:31;;;;;;;;;;;;;;;;;;5049570;28;19920;-40
2023/10/06 09:52:57;;;;;;;;;;;;;;;;;;5045849;28;19916;-40
2023/10/06 09:55:23;;;;;;;;;;;;;;;;;;5039869;28;19913;-40
2023/10/06 09:57:48;;;;;;;;;;;;;;;;;;5030497;28;19909;-40
2023/10/06 10:00:17;;;;;;;;;;;;;;;;;;5030634;28;20406;-40
2023/10/06 10:02:47;;;;;;;;;;;;;;;;;;5030504;28;19909;-40
2023/10/06 10:05:13;;;;;;;;;;;;;;;;;;5030568;28;20405;-47
2023/10/06 10:07:40;;;;;;;;;;;;;;;;;;5031020;28;20340;-48
2023/10/06 10:10:06;;;;;;;;;;;;;;;;;;5050285;28;19913;-51
2023/10/06 10:12:32;;;;;;;;;;;;;;;;;;5049838;28;19924;-49
2023/10/06 10:14:59;;;;;;;;;;;;;;;;;;5049539;28;19971;-48
2023/10/06 10:17:25;;;;;;;;;;;;;;;;;;5031785;28;19927;-40
2023/10/06 10:19:51;;;;;;;;;;;;;;;;;;5038389;28;20354;-40
2023/10/06 10:22:18;;;;;;;;;;;;;;;;;;5050146;28;19908;-40
2023/10/06 10:24:47;;;;;;;;;;;;;;;;;;5050056;28;20048;-40
2023/10/06 10:27:13;;;;;;;;;;;;;;;;;;5049884;28;19908;-40
2023/10/06 10:29:40;;;;;;;;;;;;;;;;;;5050069;28;19908;-40
2023/10/06 10:32:06;;;;;;;;;;;;;;;;;;5050225;28;20012;-40
2023/10/06 10:34:33;;;;;;;;;;;;;;;;;;5050029;28;19999;-40
2023/10/06 10:36:59;;;;;;;;;;;;;;;;;;5050265;28;20290;-40
2023/10/06 10:39:27;;;;;;;;;;;;;;;;;;5049857;28;19913;-40
2023/10/06 10:41:53;;;;;;;;;;;;;;;;;;5049658;28;19909;-40
2023/10/06 10:44:21;;;;;;;;;;;;;;;;;;5041304;28;19910;-40
2023/10/06 10:46:47;;;;;;;;;;;;;;;;;;5045598;28;20367;-40
2023/10/06 10:49:13;;;;;;;;;;;;;;;;;;5049062;28;19919;-40
2023/10/06 10:51:39;;;;;;;;;;;;;;;;;;5048781;28;19935;-40
2023/10/06 10:54:05;;;;;;;;;;;;;;;;;;5048698;28;20000;-40
2023/10/06 10:56:31;;;;;;;;;;;;;;;;;;5048704;28;20245;-40
2023/10/06 10:58:59;;;;;;;;;;;;;;;;;;5049484;28;19905;-40
2023/10/06 11:01:29;;;;;;;;;;;;;;;;;;5052389;28;19908;-40
2023/10/06 11:03:55;;;;;;;;;;;;;;;;;;5052343;28;20337;-40
2023/10/06 11:06:23;;;;;;;;;;;;;;;;;;5052384;28;19956;-40
2023/10/06 11:08:49;;;;;;;;;;;;;;;;;;5052771;28;20343;-40
2023/10/06 11:11:16;;;;;;;;;;;;;;;;;;5051949;28;19920;-40
2023/10/06 11:13:42;;;;;;;;;;;;;;;;;;5052256;28;19913;-40
2023/10/06 11:16:09;;;;;;;;;;;;;;;;;;5050530;28;20383;-40
2023/10/06 11:18:41;;;;;;;;;;;;;;;;;;5050456;28;19917;-40
2023/10/06 11:21:06;;;;;;;;;;;;;;;;;;5049612;28;19999;-40
2023/10/06 11:23:32;;;;;;;;;;;;;;;;;;5050395;28;20405;-40
2023/10/06 11:25:58;;;;;;;;;;;;;;;;;;5050332;28;19908;-40
2023/10/06 11:28:25;;;;;;;;;;;;;;;;;;5050406;28;19908;-40
2023/10/06 11:30:51;;;;;;;;;;;;;;;;;;5050403;28;19908;-40
2023/10/06 11:33:19;;;;;;;;;;;;;;;;;;5050267;28;19920;-40
2023/10/06 11:35:45;;;;;;;;;;;;;;;;;;5049975;28;19975;-40
2023/10/06 11:38:11;;;;;;;;;;;;;;;;;;5050465;28;20050;-40
2023/10/06 11:40:37;;;;;;;;;;;;;;;;;;5050215;28;19909;-40
2023/10/06 11:43:04;;;;;;;;;;;;;;;;;;5050195;28;19905;-40
2023/10/06 11:45:31;;;;;;;;;;;;;;;;;;5050098;28;19916;-40
2023/10/06 11:47:58;;;;;;;;;;;;;;;;;;5050184;28;20237;-40
2023/10/06 11:50:24;;;;;;;;;;;;;;;;;;5049846;28;19982;-40
2023/10/06 11:52:50;;;;;;;;;;;;;;;;;;5049599;28;19924;-41
2023/10/06 11:55:16;;;;;;;;;;;;;;;;;;5050228;28;20381;-41
2023/10/06 11:57:45;;;;;;;;;;;;;;;;;;5046732;28;19923;-40
2023/10/06 12:00:10;;;;;;;;;;;;;;;;;;5049796;28;20315;-40
2023/10/06 12:02:36;;;;;;;;;;;;;;;;;;5048692;28;19978;-40
2023/10/06 12:05:03;;;;;;;;;;;;;;;;;;5049676;28;19919;-40
2023/10/06 12:07:32;;;;;;;;;;;;;;;;;;5029772;28;19913;-40
2023/10/06 12:09:58;;;;;;;;;;;;;;;;;;5053526;28;19919;-40
2023/10/06 12:12:24;;;;;;;;;;;;;;;;;;5053068;28;19923;-41
2023/10/06 12:14:50;;;;;;;;;;;;;;;;;;5049648;28;19917;-41
2023/10/06 12:17:17;;;;;;;;;;;;;;;;;;5050270;28;20371;-40
2023/10/06 12:19:43;;;;;;;;;;;;;;;;;;5049588;28;19916;-40
2023/10/06 12:22:09;;;;;;;;;;;;;;;;;;5031279;28;19920;-41
2023/10/06 12:24:35;;;;;;;;;;;;;;;;;;5049483;28;19955;-41
2023/10/06 12:27:01;;;;;;;;;;;;;;;;;;5049146;28;19951;-41
2023/10/06 12:29:28;;;;;;;;;;;;;;;;;;5049263;28;19909;-41
2023/10/06 12:31:56;;;;;;;;;;;;;;;;;;5049148;28;19913;-41
2023/10/06 12:34:22;;;;;;;;;;;;;;;;;;5049101;28;19995;-40
2023/10/06 12:36:48;;;;;;;;;;;;;;;;;;5049167;28;20007;-41
2023/10/06 12:39:15;;;;;;;;;;;;;;;;;;5049667;28;19932;-41
2023/10/06 12:41:46;;;;;;;;;;;;;;;;;;5049673;28;19913;-41
2023/10/06 12:44:12;;;;;;;;;;;;;;;;;;5049710;28;19913;-41
2023/10/06 12:46:38;;;;;;;;;;;;;;;;;;5048580;28;20459;-40
2023/10/06 12:49:06;;;;;;;;;;;;;;;;;;5048981;28;20367;-41
2023/10/06 12:51:32;;;;;;;;;;;;;;;;;;5048667;28;19924;-41
2023/10/06 12:54:00;;;;;;;;;;;;;;;;;;5049100;28;20398;-41
2023/10/06 12:56:28;;;;;;;;;;;;;;;;;;5048790;28;20299;-41
2023/10/06 12:58:53;;;;;;;;;;;;;;;;;;5048523;28;20343;-41
2023/10/06 13:01:19;;;;;;;;;;;;;;;;;;5048563;28;20140;-40
2023/10/06 13:03:45;;;;;;;;;;;;;;;;;;5049207;28;19909;-41
2023/10/06 13:06:13;;;;;;;;;;;;;;;;;;5048618;28;19909;-41
2023/10/06 13:08:39;;;;;;;;;;;;;;;;;;5048519;28;19940;-41
2023/10/06 13:11:05;;;;;;;;;;;;;;;;;;5048617;28;19909;-41
2023/10/06 13:13:33;;;;;;;;;;;;;;;;;;5047093;28;19967;-41
2023/10/06 13:15:59;;;;;;;;;;;;;;;;;;5048024;28;19967;-41
2023/10/06 13:18:25;;;;;;;;;;;;;;;;;;5048567;28;19964;-41
2023/10/06 13:20:52;;;;;;;;;;;;;;;;;;5049410;28;19958;-41
2023/10/06 13:23:18;;;;;;;;;;;;;;;;;;5047757;28;19913;-41
2023/10/06 13:25:45;;;;;;;;;;;;;;;;;;5049077;28;19931;-41
2023/10/06 13:28:18;;;;;;;;;;;;;;;;;;5049170;28;20306;-41
2023/10/06 13:30:43;;;;;;;;;;;;;;;;;;5049083;28;19909;-41
2023/10/06 13:33:09;;;;;;;;;;;;;;;;;;5044917;28;19928;-42
2023/10/06 13:35:36;;;;;;;;;;;;;;;;;;5032810;28;19917;-42
2023/10/06 13:38:02;;;;;;;;;;;;;;;;;;5028056;28;19932;-41
2023/10/06 13:40:29;;;;;;;;;;;;;;;;;;5030137;28;19913;-42
2023/10/06 13:42:55;;;;;;;;;;;;;;;;;;5033998;28;19936;-41
2023/10/06 13:45:22;;;;;;;;;;;;;;;;;;5031700;28;20344;-41
2023/10/06 13:47:48;;;;;;;;;;;;;;;;;;5029689;28;19913;-41
2023/10/06 13:50:14;;;;;;;;;;;;;;;;;;5039141;28;19919;-42
2023/10/06 13:52:41;;;;;;;;;;;;;;;;;;5035505;28;19963;-41
2023/10/06 13:55:07;;;;;;;;;;;;;;;;;;5028123;28;19923;-41
2023/10/06 13:57:33;;;;;;;;;;;;;;;;;;5032752;28;19910;-41
2023/10/06 13:59:59;;;;;;;;;;;;;;;;;;5027837;28;19959;-42
2023/10/06 14:02:25;;;;;;;;;;;;;;;;;;5028375;28;20285;-41
2023/10/06 14:04:51;;;;;;;;;;;;;;;;;;5028068;28;20024;-41
2023/10/06 14:07:17;;;;;;;;;;;;;;;;;;5027873;28;20540;-41
2023/10/06 14:09:43;;;;;;;;;;;;;;;;;;5034509;28;19957;-41
2023/10/06 14:12:13;;;;;;;;;;;;;;;;;;5027767;28;19913;-41
2023/10/06 14:17:16;;;;;;;;;;;;;;;;;;5032887;28;19921;-42
2023/10/06 14:19:43;;;;;;;;;;;;;;;;;;5031406;28;19921;-41
2023/10/06 14:22:09;;;;;;;;;;;;;;;;;;5033023;28;19951;-41
2023/10/06 14:24:39;;;;;;;;;;;;;;;;;;5028060;28;19909;-41
2023/10/06 14:27:05;;;;;;;;;;;;;;;;;;5031628;28;19916;-42
2023/10/06 14:29:31;;;;;;;;;;;;;;;;;;5027289;28;20000;-41
2023/10/06 14:32:17;;;;;;;;;;;;;;;;;;5027451;28;20062;-42
2023/10/06 14:34:58;;;;;;;;;;;;;;;;;;5038471;28;20368;-41
2023/10/06 14:37:40;;;;;;;;;;;;;;;;;;5047450;28;19916;-41
2023/10/06 14:48:20;;;;;;;;;;;;;;;;;;5050242;28;20457;-42
2023/10/06 14:50:47;;;;;;;;;;;;;;;;;;5052105;28;19917;-43
2023/10/06 14:53:13;;;;;;;;;;;;;;;;;;5051821;28;20011;-41
2023/10/06 14:55:39;;;;;;;;;;;;;;;;;;5052183;28;20294;-42
2023/10/06 14:58:05;;;;;;;;;;;;;;;;;;5051935;28;19954;-42
2023/10/06 15:00:32;;;;;;;;;;;;;;;;;;5051763;28;19913;-42
2023/10/06 15:02:58;;;;;;;;;;;;;;;;;;5052152;28;19924;-42
2023/10/06 15:05:24;;;;;;;;;;;;;;;;;;5052477;28;19908;-42
2023/10/06 15:07:50;;;;;;;;;;;;;;;;;;5051883;28;19952;-41
2023/10/06 15:10:18;;;;;;;;;;;;;;;;;;5050888;28;19913;-41
2023/10/06 15:12:45;;;;;;;;;;;;;;;;;;5052202;28;19913;-42
2023/10/06 15:15:15;;;;;;;;;;;;;;;;;;5052000;28;19940;-42
2023/10/06 15:17:43;;;;;;;;;;;;;;;;;;5051123;28;19917;-42
2023/10/06 15:20:12;;;;;;;;;;;;;;;;;;5052461;28;19920;-42
2023/10/06 15:22:40;;;;;;;;;;;;;;;;;;5052532;28;20364;-42
2023/10/06 15:25:06;;;;;;;;;;;;;;;;;;5052158;28;20368;-42
2023/10/06 15:27:32;;;;;;;;;;;;;;;;;;5051774;28;19912;-42
2023/10/06 15:29:58;;;;;;;;;;;;;;;;;;5051401;28;19912;-42
2023/10/06 15:32:26;;;;;;;;;;;;;;;;;;5051674;28;19920;-42
2023/10/06 15:34:52;;;;;;;;;;;;;;;;;;5051588;28;20383;-43
2023/10/06 15:37:19;;;;;;;;;;;;;;;;;;5051682;28;19916;-42
2023/10/06 15:39:45;;;;;;;;;;;;;;;;;;5050914;28;19924;-42
2023/10/06 15:42:11;;;;;;;;;;;;;;;;;;5051337;28;20031;-42
2023/10/06 15:44:37;;;;;;;;;;;;;;;;;;5051009;28;19913;-43
2023/10/06 15:47:03;;;;;;;;;;;;;;;;;;5051494;28;19996;-42
2023/10/06 15:49:29;;;;;;;;;;;;;;;;;;5050362;28;19920;-42
2023/10/06 15:51:56;;;;;;;;;;;;;;;;;;5045927;28;19916;-42
2023/10/06 15:54:22;;;;;;;;;;;;;;;;;;5044250;28;20298;-43
2023/10/06 15:56:51;;;;;;;;;;;;;;;;;;5049993;28;20276;-42
2023/10/06 15:59:20;;;;;;;;;;;;;;;;;;5050579;28;19913;-43
2023/10/06 16:01:47;;;;;;;;;;;;;;;;;;5048878;28;19912;-42
2023/10/06 16:04:13;;;;;;;;;;;;;;;;;;5049682;28;20000;-43
2023/10/06 16:06:41;;;;;;;;;;;;;;;;;;5047594;28;20027;-42
2023/10/06 16:09:15;;;;;;;;;;;;;;;;;;5050379;28;19958;-42
2023/10/06 16:11:41;;;;;;;;;;;;;;;;;;5050252;28;19919;-42
2023/10/06 16:14:07;;;;;;;;;;;;;;;;;;5051104;28;19909;-43
2023/10/06 16:16:34;;;;;;;;;;;;;;;;;;5051291;28;20452;-42
2023/10/06 16:19:00;;;;;;;;;;;;;;;;;;5050181;28;19917;-43
2023/10/06 16:21:26;;;;;;;;;;;;;;;;;;5051506;28;20404;-42
2023/10/06 16:23:52;;;;;;;;;;;;;;;;;;5050317;28;19917;-42
2023/10/06 16:26:18;;;;;;;;;;;;;;;;;;5049735;28;19920;-42
2023/10/06 16:28:44;;;;;;;;;;;;;;;;;;5049076;28;19913;-42
2023/10/06 16:31:12;;;;;;;;;;;;;;;;;;5050980;28;19939;-43
2023/10/06 16:33:41;;;;;;;;;;;;;;;;;;5051507;28;19917;-42
2023/10/06 16:36:07;;;;;;;;;;;;;;;;;;5051233;28;19909;-42
2023/10/06 16:38:33;;;;;;;;;;;;;;;;;;5049941;28;20416;-41
2023/10/06 16:40:59;;;;;;;;;;;;;;;;;;5050123;28;20427;-43
2023/10/06 16:43:24;;;;;;;;;;;;;;;;;;5049849;28;19909;-42
2023/10/06 16:45:50;;;;;;;;;;;;;;;;;;5048814;28;19927;-43
2023/10/06 16:48:16;;;;;;;;;;;;;;;;;;5048655;28;19974;-42
2023/10/06 16:50:42;;;;;;;;;;;;;;;;;;5048839;28;19920;-43
2023/10/06 16:53:09;;;;;;;;;;;;;;;;;;5049780;28;19912;-42
2023/10/06 16:55:35;;;;;;;;;;;;;;;;;;5048876;28;20367;-42
2023/10/06 16:58:01;;;;;;;;;;;;;;;;;;5049673;28;19919;-43
2023/10/06 17:00:26;;;;;;;;;;;;;;;;;;5046032;28;19913;-42
2023/10/06 17:02:52;;;;;;;;;;;;;;;;;;5042656;28;20349;-42
2023/10/06 17:05:21;;;;;;;;;;;;;;;;;;5048279;28;19970;-42
2023/10/06 17:07:47;;;;;;;;;;;;;;;;;;5046021;28;20360;-42
2023/10/06 17:10:15;;;;;;;;;;;;;;;;;;5067880;28;19939;-42
2023/10/06 17:12:42;;;;;;;;;;;;;;;;;;5062386;28;19925;-42
2023/10/06 17:15:10;;;;;;;;;;;;;;;;;;5049473;28;19908;-42
2023/10/06 17:17:37;;;;;;;;;;;;;;;;;;5049127;28;19916;-41
2023/10/06 17:20:03;;;;;;;;;;;;;;;;;;5044381;28;19963;-41
2023/10/06 17:22:29;;;;;;;;;;;;;;;;;;5047102;28;19985;-41
2023/10/06 17:24:56;;;;;;;;;;;;;;;;;;5029636;28;19928;-41
2023/10/06 17:27:22;;;;;;;;;;;;;;;;;;5046645;28;19921;-41
2023/10/06 17:29:49;;;;;;;;;;;;;;;;;;5047932;28;20410;-41
2023/10/06 17:32:17;;;;;;;;;;;;;;;;;;5048281;28;20305;-41
2023/10/06 17:34:43;;;;;;;;;;;;;;;;;;5045438;28;19924;-42
2023/10/06 17:37:08;;;;;;;;;;;;;;;;;;5048133;28;19916;-41
2023/10/06 17:39:36;;;;;;;;;;;;;;;;;;5047698;28;19923;-40
2023/10/06 17:42:02;;;;;;;;;;;;;;;;;;5047928;28;19919;-40
2023/10/06 17:44:28;;;;;;;;;;;;;;;;;;5048692;28;19909;-41
2023/10/06 17:46:54;;;;;;;;;;;;;;;;;;5045778;28;19909;-41
2023/10/06 17:49:20;;;;;;;;;;;;;;;;;;5046784;28;20000;-40
2023/10/06 17:51:46;;;;;;;;;;;;;;;;;;5046355;28;20000;-41
2023/10/06 17:54:13;;;;;;;;;;;;;;;;;;5047047;28;20406;-41
2023/10/06 17:56:39;;;;;;;;;;;;;;;;;;5048147;28;19909;-40
2023/10/06 17:59:15;;;;;;;;;;;;;;;;;;5045482;28;19913;-41
2023/10/06 18:01:41;;;;;;;;;;;;;;;;;;5046983;28;20275;-40
2023/10/06 18:04:07;;;;;;;;;;;;;;;;;;5045849;28;19995;-41
2023/10/06 18:06:33;;;;;;;;;;;;;;;;;;5045382;28;20341;-41
2023/10/06 18:08:59;;;;;;;;;;;;;;;;;;5046022;28;19954;-40
2023/10/06 18:11:25;;;;;;;;;;;;;;;;;;5026784;28;19917;-40
2023/10/06 18:13:51;;;;;;;;;;;;;;;;;;5043560;28;19924;-40
2023/10/06 18:16:16;;;;;;;;;;;;;;;;;;5046273;28;20002;-40
2023/10/06 18:18:42;;;;;;;;;;;;;;;;;;5043660;28;19920;-40
2023/10/06 18:21:08;;;;;;;;;;;;;;;;;;5025533;28;19913;-40
2023/10/06 18:23:34;;;;;;;;;;;;;;;;;;5043664;28;20766;-40
2023/10/06 18:26:00;;;;;;;;;;;;;;;;;;5046372;28;19991;-40
2023/10/06 18:28:26;;;;;;;;;;;;;;;;;;5045004;28;20003;-40
2023/10/06 18:30:52;;;;;;;;;;;;;;;;;;5044899;28;19927;-40
2023/10/06 18:33:18;;;;;;;;;;;;;;;;;;5042596;28;19972;-40
2023/10/06 18:35:44;;;;;;;;;;;;;;;;;;5043883;28;20423;-40
2023/10/06 18:38:10;;;;;;;;;;;;;;;;;;5046271;28;19915;-40
2023/10/06 18:40:36;;;;;;;;;;;;;;;;;;5045085;28;19916;-40
2023/10/06 18:43:02;;;;;;;;;;;;;;;;;;5026464;28;19924;-40
2023/10/06 18:45:28;;;;;;;;;;;;;;;;;;5027006;28;19920;-40
2023/10/06 18:47:54;;;;;;;;;;;;;;;;;;5044796;28;20027;-40
2023/10/06 18:50:21;;;;;;;;;;;;;;;;;;5055474;28;19951;-40
2023/10/06 18:52:48;;;;;;;;;;;;;;;;;;5066051;28;19920;-40
2023/10/06 18:55:14;;;;;;;;;;;;;;;;;;5044780;28;19917;-40
2023/10/06 18:57:41;;;;;;;;;;;;;;;;;;5041782;28;19970;-40
2023/10/06 19:00:09;;;;;;;;;;;;;;;;;;5039212;28;19916;-40
2023/10/06 19:02:36;;;;;;;;;;;;;;;;;;5043079;28;19913;-39
2023/10/06 19:05:01;;;;;;;;;;;;;;;;;;5043896;28;20164;-40
2023/10/06 19:07:27;;;;;;;;;;;;;;;;;;5024610;28;20272;-40
2023/10/06 19:09:54;;;;;;;;;;;;;;;;;;5043835;28;20406;-40
2023/10/06 19:12:20;;;;;;;;;;;;;;;;;;5044377;28;19975;-40
2023/10/06 19:14:46;;;;;;;;;;;;;;;;;;5044970;28;19925;-40
2023/10/06 19:17:12;;;;;;;;;;;;;;;;;;5042956;28;19912;-40
2023/10/06 19:19:39;;;;;;;;;;;;;;;;;;5043680;28;20383;-40
2023/10/06 19:22:06;;;;;;;;;;;;;;;;;;5028650;28;19913;-40
2023/10/06 19:24:31;;;;;;;;;;;;;;;;;;5027749;28;19924;-40
2023/10/06 19:26:57;;;;;;;;;;;;;;;;;;5048311;28;19912;-40
2023/10/06 19:29:23;;;;;;;;;;;;;;;;;;5031276;28;20331;-39
2023/10/06 19:31:49;;;;;;;;;;;;;;;;;;5045588;28;19956;-40
2023/10/06 19:34:15;;;;;;;;;;;;;;;;;;5047752;28;19916;-40
2023/10/06 19:36:41;;;;;;;;;;;;;;;;;;5043420;28;19923;-40
2023/10/06 19:39:08;;;;;;;;;;;;;;;;;;5044559;28;20296;-40
2023/10/06 19:41:34;;;;;;;;;;;;;;;;;;5047726;28;19913;-40
2023/10/06 19:44:00;;;;;;;;;;;;;;;;;;5046167;28;19919;-40
2023/10/06 19:46:26;;;;;;;;;;;;;;;;;;5046944;28;19912;-40
2023/10/06 19:48:55;;;;;;;;;;;;;;;;;;5046600;28;19913;-40
2023/10/06 19:51:21;;;;;;;;;;;;;;;;;;5029201;28;19920;-40
2023/10/06 19:53:47;;;;;;;;;;;;;;;;;;5028887;28;19925;-40
2023/10/06 19:56:13;;;;;;;;;;;;;;;;;;5048140;28;20008;-40
2023/10/06 19:58:39;;;;;;;;;;;;;;;;;;5045411;28;19912;-40
2023/10/06 20:01:05;;;;;;;;;;;;;;;;;;5060705;28;19909;-40
2023/10/06 20:03:31;;;;;;;;;;;;;;;;;;5045815;28;20011;-40
2023/10/06 20:05:57;;;;;;;;;;;;;;;;;;5048581;28;19913;-40
2023/10/06 20:08:22;;;;;;;;;;;;;;;;;;5048059;28;19974;-40
2023/10/06 20:10:48;;;;;;;;;;;;;;;;;;5046467;28;19916;-40
2023/10/06 20:13:14;;;;;;;;;;;;;;;;;;5048062;28;19939;-40
2023/10/06 20:15:40;;;;;;;;;;;;;;;;;;5048450;28;19995;-40
2023/10/06 20:18:06;;;;;;;;;;;;;;;;;;5047846;28;20284;-40
2023/10/06 20:20:32;;;;;;;;;;;;;;;;;;5030097;28;19913;-40
2023/10/06 20:22:58;;;;;;;;;;;;;;;;;;5046093;28;20121;-40
2023/10/06 20:25:24;;;;;;;;;;;;;;;;;;5028102;28;19920;-40
2023/10/06 20:27:51;;;;;;;;;;;;;;;;;;5047909;28;19916;-39
2023/10/06 20:30:17;;;;;;;;;;;;;;;;;;5047363;28;19939;-40
2023/10/06 20:32:44;;;;;;;;;;;;;;;;;;5028867;28;19925;-40
2023/10/06 20:35:11;;;;;;;;;;;;;;;;;;5047623;28;19952;-40
2023/10/06 20:37:37;;;;;;;;;;;;;;;;;;5047592;28;19913;-40
2023/10/06 20:40:03;;;;;;;;;;;;;;;;;;5048117;28;20383;-40
2023/10/06 20:42:30;;;;;;;;;;;;;;;;;;5028786;28;19920;-40
2023/10/06 20:44:56;;;;;;;;;;;;;;;;;;5047176;28;19920;-39
2023/10/06 20:47:22;;;;;;;;;;;;;;;;;;5047649;28;19912;-39
2023/10/06 20:49:49;;;;;;;;;;;;;;;;;;5046430;28;19952;-40
2023/10/06 20:52:15;;;;;;;;;;;;;;;;;;5046600;28;19920;-40
2023/10/06 20:54:40;;;;;;;;;;;;;;;;;;5043786;28;19927;-40
2023/10/06 20:57:06;;;;;;;;;;;;;;;;;;5047647;28;20088;-40
2023/10/06 20:59:32;;;;;;;;;;;;;;;;;;5067168;28;19920;-40
2023/10/06 21:01:58;;;;;;;;;;;;;;;;;;5058461;28;19999;-40
2023/10/06 21:04:24;;;;;;;;;;;;;;;;;;5047452;28;19909;-40
2023/10/06 21:06:50;;;;;;;;;;;;;;;;;;5044399;28;19917;-40
2023/10/06 21:09:17;;;;;;;;;;;;;;;;;;5045927;28;20033;-40
2023/10/06 21:11:43;;;;;;;;;;;;;;;;;;5045930;28;20007;-40
2023/10/06 21:14:12;;;;;;;;;;;;;;;;;;5045152;28;20024;-40
2023/10/06 21:16:38;;;;;;;;;;;;;;;;;;5044102;28;20976;-40
2023/10/06 21:19:03;;;;;;;;;;;;;;;;;;5045457;28;19917;-40
2023/10/06 21:21:30;;;;;;;;;;;;;;;;;;5027843;28;19935;-40
2023/10/06 21:23:56;;;;;;;;;;;;;;;;;;5049102;28;20333;-40
2023/10/06 21:26:22;;;;;;;;;;;;;;;;;;5065703;28;20302;-40
2023/10/06 21:28:48;;;;;;;;;;;;;;;;;;5045439;28;19955;-40
2023/10/06 21:31:14;;;;;;;;;;;;;;;;;;5046103;28;19917;-40
2023/10/06 21:33:40;;;;;;;;;;;;;;;;;;5043281;28;19916;-40
2023/10/06 21:36:06;;;;;;;;;;;;;;;;;;5041019;28;20347;-39
2023/10/06 21:38:32;;;;;;;;;;;;;;;;;;5044490;28;19916;-40
2023/10/06 21:40:58;;;;;;;;;;;;;;;;;;5027246;28;19919;-40
2023/10/06 21:43:25;;;;;;;;;;;;;;;;;;5042824;28;20137;-41
2023/10/06 21:45:51;;;;;;;;;;;;;;;;;;5046307;28;19909;-40
2023/10/06 21:48:18;;;;;;;;;;;;;;;;;;5047487;28;20046;-40
2023/10/06 21:50:43;;;;;;;;;;;;;;;;;;5043154;28;19913;-40
2023/10/06 21:53:11;;;;;;;;;;;;;;;;;;5025656;28;20019;-40
2023/10/06 21:55:37;;;;;;;;;;;;;;;;;;5028391;28;19920;-40
2023/10/06 21:58:03;;;;;;;;;;;;;;;;;;5043960;28;19917;-40
2023/10/06 22:00:32;;;;;;;;;;;;;;;;;;5045375;28;20136;-40
2023/10/06 22:02:58;;;;;;;;;;;;;;;;;;5045575;28;19908;-39
2023/10/06 22:05:24;;;;;;;;;;;;;;;;;;5046550;28;19963;-40
2023/10/06 22:07:50;;;;;;;;;;;;;;;;;;5046142;28;19909;-39
2023/10/06 22:10:16;;;;;;;;;;;;;;;;;;5046873;28;19956;-40